sensor_id;sensor_type;location;lat;lon;timestamp;P1;durP1;ratioP1;P2;durP2;ratioP2
15130;SDS011;7666;50.920;4.628;2023-05-21T00:00:44;2.90;;;2.60;;
15130;SDS011;7666;50.920;4.628;2023-05-21T00:03:30;2.47;;;2.23;;
15130;SDS011;7666;50.920;4.628;2023-05-21T00:06:17;2.67;;;2.10;;
15130;SDS011;7666;50.920;4.628;2023-05-21T00:09:05;2.80;;;2.37;;
15130;SDS011;7666;50.920;4.628;2023-05-21T00:11:51;2.40;;;2.20;;
15130;SDS011;7666;50.920;4.628;2023-05-21T00:14:37;2.73;;;2.07;;
15130;SDS011;7666;50.920;4.628;2023-05-21T00:17:23;2.63;;;2.20;;
15130;SDS011;7666;50.920;4.628;2023-05-21T00:20:10;2.57;;;2.10;;
15130;SDS011;7666;50.920;4.628;2023-05-21T00:23:00;3.77;;;2.60;;
15130;SDS011;7666;50.920;4.628;2023-05-21T00:25:49;2.87;;;2.53;;
15130;SDS011;7666;50.920;4.628;2023-05-21T00:28:36;3.60;;;2.50;;
15130;SDS011;7666;50.920;4.628;2023-05-21T00:31:22;3.03;;;2.37;;
15130;SDS011;7666;50.920;4.628;2023-05-21T00:34:08;3.00;;;2.60;;
15130;SDS011;7666;50.920;4.628;2023-05-21T00:36:54;4.03;;;2.70;;
15130;SDS011;7666;50.920;4.628;2023-05-21T00:39:40;3.00;;;2.47;;
15130;SDS011;7666;50.920;4.628;2023-05-21T00:42:26;4.40;;;2.43;;
15130;SDS011;7666;50.920;4.628;2023-05-21T00:45:14;3.80;;;2.43;;
15130;SDS011;7666;50.920;4.628;2023-05-21T00:48:00;2.50;;;2.30;;
15130;SDS011;7666;50.920;4.628;2023-05-21T00:50:48;3.10;;;2.80;;
15130;SDS011;7666;50.920;4.628;2023-05-21T00:53:35;3.03;;;2.73;;
15130;SDS011;7666;50.920;4.628;2023-05-21T00:56:22;2.67;;;2.47;;
15130;SDS011;7666;50.920;4.628;2023-05-21T00:59:08;2.97;;;2.67;;
15130;SDS011;7666;50.920;4.628;2023-05-21T01:01:55;3.13;;;2.07;;
15130;SDS011;7666;50.920;4.628;2023-05-21T01:04:41;2.43;;;2.23;;
15130;SDS011;7666;50.920;4.628;2023-05-21T01:07:27;3.17;;;2.53;;
15130;SDS011;7666;50.920;4.628;2023-05-21T01:10:13;2.80;;;2.50;;
15130;SDS011;7666;50.920;4.628;2023-05-21T01:13:00;3.33;;;2.70;;
15130;SDS011;7666;50.920;4.628;2023-05-21T01:15:46;4.20;;;2.83;;
15130;SDS011;7666;50.920;4.628;2023-05-21T01:18:33;3.63;;;2.20;;
15130;SDS011;7666;50.920;4.628;2023-05-21T01:21:21;3.53;;;2.67;;
15130;SDS011;7666;50.920;4.628;2023-05-21T01:24:10;5.10;;;2.43;;
15130;SDS011;7666;50.920;4.628;2023-05-21T01:26:57;5.37;;;2.73;;
15130;SDS011;7666;50.920;4.628;2023-05-21T01:29:44;3.80;;;2.63;;
15130;SDS011;7666;50.920;4.628;2023-05-21T01:35:32;4.27;;;2.73;;
15130;SDS011;7666;50.920;4.628;2023-05-21T01:39:01;3.50;;;3.10;;
15130;SDS011;7666;50.920;4.628;2023-05-21T01:41:45;3.73;;;3.00;;
15130;SDS011;7666;50.920;4.628;2023-05-21T01:44:32;3.10;;;2.70;;
15130;SDS011;7666;50.920;4.628;2023-05-21T01:47:20;3.80;;;2.70;;
15130;SDS011;7666;50.920;4.628;2023-05-21T01:50:11;3.30;;;2.40;;
15130;SDS011;7666;50.920;4.628;2023-05-21T01:52:58;4.50;;;3.00;;
15130;SDS011;7666;50.920;4.628;2023-05-21T01:55:48;4.90;;;2.50;;
15130;SDS011;7666;50.920;4.628;2023-05-21T01:58:34;2.93;;;2.50;;
15130;SDS011;7666;50.920;4.628;2023-05-21T02:01:20;4.03;;;2.70;;
15130;SDS011;7666;50.920;4.628;2023-05-21T02:04:06;2.73;;;2.50;;
15130;SDS011;7666;50.920;4.628;2023-05-21T02:06:52;2.97;;;2.67;;
15130;SDS011;7666;50.920;4.628;2023-05-21T02:09:39;2.73;;;2.53;;
15130;SDS011;7666;50.920;4.628;2023-05-21T02:12:25;3.70;;;2.50;;
15130;SDS011;7666;50.920;4.628;2023-05-21T02:15:12;2.70;;;2.50;;
15130;SDS011;7666;50.920;4.628;2023-05-21T02:17:58;3.00;;;2.70;;
15130;SDS011;7666;50.920;4.628;2023-05-21T02:20:44;4.43;;;2.80;;
15130;SDS011;7666;50.920;4.628;2023-05-21T02:23:30;4.90;;;3.30;;
15130;SDS011;7666;50.920;4.628;2023-05-21T02:26:16;3.93;;;2.70;;
15130;SDS011;7666;50.920;4.628;2023-05-21T02:29:02;4.33;;;2.40;;
15130;SDS011;7666;50.920;4.628;2023-05-21T02:31:48;2.70;;;2.50;;
15130;SDS011;7666;50.920;4.628;2023-05-21T02:34:35;4.13;;;2.77;;
15130;SDS011;7666;50.920;4.628;2023-05-21T02:37:26;3.57;;;2.90;;
15130;SDS011;7666;50.920;4.628;2023-05-21T02:40:12;3.10;;;2.90;;
15130;SDS011;7666;50.920;4.628;2023-05-21T02:42:58;3.07;;;2.53;;
15130;SDS011;7666;50.920;4.628;2023-05-21T02:45:44;3.73;;;2.90;;
15130;SDS011;7666;50.920;4.628;2023-05-21T02:48:30;4.67;;;3.37;;
15130;SDS011;7666;50.920;4.628;2023-05-21T02:51:16;3.93;;;3.13;;
15130;SDS011;7666;50.920;4.628;2023-05-21T02:54:02;4.77;;;3.43;;
15130;SDS011;7666;50.920;4.628;2023-05-21T02:56:48;4.53;;;3.23;;
15130;SDS011;7666;50.920;4.628;2023-05-21T02:59:34;3.73;;;3.20;;
15130;SDS011;7666;50.920;4.628;2023-05-21T03:02:20;3.90;;;3.50;;
15130;SDS011;7666;50.920;4.628;2023-05-21T03:05:07;4.57;;;3.43;;
15130;SDS011;7666;50.920;4.628;2023-05-21T03:07:54;3.70;;;3.40;;
15130;SDS011;7666;50.920;4.628;2023-05-21T03:10:40;5.03;;;3.60;;
15130;SDS011;7666;50.920;4.628;2023-05-21T03:13:26;4.00;;;3.60;;
15130;SDS011;7666;50.920;4.628;2023-05-21T03:16:12;4.47;;;3.00;;
15130;SDS011;7666;50.920;4.628;2023-05-21T03:18:58;3.43;;;3.13;;
15130;SDS011;7666;50.920;4.628;2023-05-21T03:21:44;3.80;;;2.80;;
15130;SDS011;7666;50.920;4.628;2023-05-21T03:24:31;3.90;;;3.50;;
15130;SDS011;7666;50.920;4.628;2023-05-21T03:27:17;3.77;;;3.07;;
15130;SDS011;7666;50.920;4.628;2023-05-21T03:30:03;4.33;;;3.63;;
15130;SDS011;7666;50.920;4.628;2023-05-21T03:32:50;5.07;;;4.10;;
15130;SDS011;7666;50.920;4.628;2023-05-21T03:35:36;4.33;;;3.93;;
15130;SDS011;7666;50.920;4.628;2023-05-21T03:38:21;4.13;;;3.63;;
15130;SDS011;7666;50.920;4.628;2023-05-21T03:41:07;3.87;;;3.50;;
15130;SDS011;7666;50.920;4.628;2023-05-21T03:43:54;4.40;;;3.90;;
15130;SDS011;7666;50.920;4.628;2023-05-21T03:46:40;4.43;;;4.03;;
15130;SDS011;7666;50.920;4.628;2023-05-21T03:49:26;3.53;;;3.10;;
15130;SDS011;7666;50.920;4.628;2023-05-21T03:52:12;4.03;;;3.63;;
15130;SDS011;7666;50.920;4.628;2023-05-21T03:54:58;3.90;;;3.60;;
15130;SDS011;7666;50.920;4.628;2023-05-21T03:57:44;4.60;;;4.20;;
15130;SDS011;7666;50.920;4.628;2023-05-21T04:00:30;4.20;;;3.80;;
15130;SDS011;7666;50.920;4.628;2023-05-21T04:03:21;3.60;;;3.30;;
15130;SDS011;7666;50.920;4.628;2023-05-21T04:06:08;6.83;;;4.30;;
15130;SDS011;7666;50.920;4.628;2023-05-21T04:08:54;4.43;;;4.03;;
15130;SDS011;7666;50.920;4.628;2023-05-21T04:11:40;3.83;;;3.47;;
15130;SDS011;7666;50.920;4.628;2023-05-21T04:14:26;4.27;;;3.87;;
15130;SDS011;7666;50.920;4.628;2023-05-21T04:17:12;5.00;;;3.87;;
15130;SDS011;7666;50.920;4.628;2023-05-21T04:19:58;3.73;;;3.43;;
15130;SDS011;7666;50.920;4.628;2023-05-21T04:22:44;4.33;;;3.80;;
15130;SDS011;7666;50.920;4.628;2023-05-21T04:25:30;4.97;;;3.63;;
15130;SDS011;7666;50.920;4.628;2023-05-21T04:28:16;4.30;;;3.90;;
15130;SDS011;7666;50.920;4.628;2023-05-21T04:31:05;4.10;;;3.70;;
15130;SDS011;7666;50.920;4.628;2023-05-21T04:33:52;4.33;;;3.93;;
15130;SDS011;7666;50.920;4.628;2023-05-21T04:36:38;5.97;;;3.87;;
15130;SDS011;7666;50.920;4.628;2023-05-21T04:39:26;4.50;;;4.03;;
15130;SDS011;7666;50.920;4.628;2023-05-21T04:42:12;5.57;;;4.10;;
15130;SDS011;7666;50.920;4.628;2023-05-21T04:44:58;4.37;;;3.97;;
15130;SDS011;7666;50.920;4.628;2023-05-21T04:47:45;4.67;;;3.57;;
15130;SDS011;7666;50.920;4.628;2023-05-21T04:50:32;4.80;;;4.30;;
15130;SDS011;7666;50.920;4.628;2023-05-21T04:53:18;4.43;;;4.03;;
15130;SDS011;7666;50.920;4.628;2023-05-21T04:56:04;6.90;;;4.20;;
15130;SDS011;7666;50.920;4.628;2023-05-21T04:58:54;5.20;;;4.20;;
15130;SDS011;7666;50.920;4.628;2023-05-21T05:01:40;5.07;;;3.73;;
15130;SDS011;7666;50.920;4.628;2023-05-21T05:04:28;4.10;;;3.70;;
15130;SDS011;7666;50.920;4.628;2023-05-21T05:07:14;4.87;;;3.93;;
15130;SDS011;7666;50.920;4.628;2023-05-21T05:10:00;5.07;;;4.00;;
15130;SDS011;7666;50.920;4.628;2023-05-21T05:12:46;5.20;;;4.20;;
15130;SDS011;7666;50.920;4.628;2023-05-21T05:15:33;4.60;;;4.00;;
15130;SDS011;7666;50.920;4.628;2023-05-21T05:18:19;5.10;;;3.97;;
15130;SDS011;7666;50.920;4.628;2023-05-21T05:21:05;4.40;;;4.00;;
15130;SDS011;7666;50.920;4.628;2023-05-21T05:23:51;5.47;;;4.97;;
15130;SDS011;7666;50.920;4.628;2023-05-21T05:26:37;5.40;;;4.70;;
15130;SDS011;7666;50.920;4.628;2023-05-21T05:29:23;4.80;;;4.30;;
15130;SDS011;7666;50.920;4.628;2023-05-21T05:32:09;5.17;;;4.67;;
15130;SDS011;7666;50.920;4.628;2023-05-21T05:34:54;4.80;;;4.37;;
15130;SDS011;7666;50.920;4.628;2023-05-21T05:37:40;5.47;;;4.47;;
15130;SDS011;7666;50.920;4.628;2023-05-21T05:40:26;5.60;;;5.10;;
15130;SDS011;7666;50.920;4.628;2023-05-21T05:43:12;6.83;;;5.17;;
15130;SDS011;7666;50.920;4.628;2023-05-21T05:45:58;5.27;;;4.77;;
15130;SDS011;7666;50.920;4.628;2023-05-21T05:48:44;6.23;;;5.23;;
15130;SDS011;7666;50.920;4.628;2023-05-21T05:51:30;5.63;;;5.00;;
15130;SDS011;7666;50.920;4.628;2023-05-21T05:54:16;6.40;;;5.80;;
15130;SDS011;7666;50.920;4.628;2023-05-21T05:57:03;6.93;;;5.10;;
15130;SDS011;7666;50.920;4.628;2023-05-21T05:59:50;5.87;;;5.33;;
15130;SDS011;7666;50.920;4.628;2023-05-21T06:02:36;7.70;;;5.73;;
15130;SDS011;7666;50.920;4.628;2023-05-21T06:05:22;8.53;;;5.90;;
15130;SDS011;7666;50.920;4.628;2023-05-21T06:08:08;6.83;;;5.90;;
15130;SDS011;7666;50.920;4.628;2023-05-21T06:10:54;7.17;;;6.00;;
15130;SDS011;7666;50.920;4.628;2023-05-21T06:13:40;6.70;;;5.97;;
15130;SDS011;7666;50.920;4.628;2023-05-21T06:16:26;7.77;;;6.20;;
15130;SDS011;7666;50.920;4.628;2023-05-21T06:19:15;7.07;;;6.37;;
15130;SDS011;7666;50.920;4.628;2023-05-21T06:22:01;8.87;;;6.57;;
15130;SDS011;7666;50.920;4.628;2023-05-21T06:24:47;7.37;;;6.47;;
15130;SDS011;7666;50.920;4.628;2023-05-21T06:27:33;7.07;;;6.33;;
15130;SDS011;7666;50.920;4.628;2023-05-21T06:30:19;8.10;;;6.63;;
15130;SDS011;7666;50.920;4.628;2023-05-21T06:33:05;7.07;;;6.37;;
15130;SDS011;7666;50.920;4.628;2023-05-21T06:35:51;8.43;;;6.67;;
15130;SDS011;7666;50.920;4.628;2023-05-21T06:38:37;7.33;;;6.63;;
15130;SDS011;7666;50.920;4.628;2023-05-21T06:41:23;7.43;;;6.63;;
15130;SDS011;7666;50.920;4.628;2023-05-21T06:44:10;7.57;;;6.43;;
15130;SDS011;7666;50.920;4.628;2023-05-21T06:46:56;8.30;;;6.47;;
15130;SDS011;7666;50.920;4.628;2023-05-21T06:49:42;8.73;;;6.57;;
15130;SDS011;7666;50.920;4.628;2023-05-21T06:52:28;7.83;;;6.83;;
15130;SDS011;7666;50.920;4.628;2023-05-21T06:55:16;7.07;;;6.37;;
15130;SDS011;7666;50.920;4.628;2023-05-21T06:58:02;7.63;;;6.80;;
15130;SDS011;7666;50.920;4.628;2023-05-21T07:00:47;7.53;;;6.83;;
15130;SDS011;7666;50.920;4.628;2023-05-21T07:03:34;7.73;;;6.83;;
15130;SDS011;7666;50.920;4.628;2023-05-21T07:06:20;7.53;;;6.83;;
15130;SDS011;7666;50.920;4.628;2023-05-21T07:09:06;8.47;;;6.23;;
15130;SDS011;7666;50.920;4.628;2023-05-21T07:11:53;11.80;;;6.73;;
15130;SDS011;7666;50.920;4.628;2023-05-21T07:14:39;10.40;;;6.67;;
15130;SDS011;7666;50.920;4.628;2023-05-21T07:17:25;7.43;;;6.33;;
15130;SDS011;7666;50.920;4.628;2023-05-21T07:20:11;7.57;;;6.43;;
15130;SDS011;7666;50.920;4.628;2023-05-21T07:22:57;7.10;;;6.37;;
15130;SDS011;7666;50.920;4.628;2023-05-21T07:25:43;7.30;;;6.27;;
15130;SDS011;7666;50.920;4.628;2023-05-21T07:28:29;6.87;;;6.17;;
15130;SDS011;7666;50.920;4.628;2023-05-21T07:31:15;8.93;;;6.50;;
15130;SDS011;7666;50.920;4.628;2023-05-21T07:34:01;9.53;;;6.90;;
15130;SDS011;7666;50.920;4.628;2023-05-21T07:36:47;7.20;;;6.50;;
15130;SDS011;7666;50.920;4.628;2023-05-21T07:39:33;7.10;;;6.40;;
15130;SDS011;7666;50.920;4.628;2023-05-21T07:42:19;8.80;;;6.10;;
15130;SDS011;7666;50.920;4.628;2023-05-21T07:45:05;7.20;;;6.50;;
15130;SDS011;7666;50.920;4.628;2023-05-21T07:47:52;6.80;;;6.20;;
15130;SDS011;7666;50.920;4.628;2023-05-21T07:50:38;8.50;;;6.43;;
15130;SDS011;7666;50.920;4.628;2023-05-21T07:53:24;7.43;;;6.73;;
15130;SDS011;7666;50.920;4.628;2023-05-21T07:56:10;7.93;;;6.50;;
15130;SDS011;7666;50.920;4.628;2023-05-21T07:58:56;7.80;;;7.00;;
15130;SDS011;7666;50.920;4.628;2023-05-21T08:01:42;9.73;;;7.00;;
15130;SDS011;7666;50.920;4.628;2023-05-21T08:04:28;8.23;;;7.07;;
15130;SDS011;7666;50.920;4.628;2023-05-21T08:07:14;9.10;;;7.20;;
15130;SDS011;7666;50.920;4.628;2023-05-21T08:10:04;8.93;;;7.37;;
15130;SDS011;7666;50.920;4.628;2023-05-21T08:12:50;9.80;;;7.23;;
15130;SDS011;7666;50.920;4.628;2023-05-21T08:15:36;8.13;;;7.33;;
15130;SDS011;7666;50.920;4.628;2023-05-21T08:18:22;8.13;;;7.33;;
15130;SDS011;7666;50.920;4.628;2023-05-21T08:21:09;10.20;;;7.70;;
15130;SDS011;7666;50.920;4.628;2023-05-21T08:23:56;8.13;;;7.30;;
15130;SDS011;7666;50.920;4.628;2023-05-21T08:26:44;8.13;;;7.20;;
15130;SDS011;7666;50.920;4.628;2023-05-21T08:29:31;9.77;;;7.80;;
15130;SDS011;7666;50.920;4.628;2023-05-21T08:32:17;9.43;;;8.30;;
15130;SDS011;7666;50.920;4.628;2023-05-21T08:35:04;9.17;;;7.20;;
15130;SDS011;7666;50.920;4.628;2023-05-21T08:37:50;8.20;;;7.40;;
15130;SDS011;7666;50.920;4.628;2023-05-21T08:40:36;9.10;;;7.87;;
15130;SDS011;7666;50.920;4.628;2023-05-21T08:43:23;8.63;;;7.80;;
15130;SDS011;7666;50.920;4.628;2023-05-21T08:46:13;8.57;;;7.07;;
15130;SDS011;7666;50.920;4.628;2023-05-21T08:49:03;9.40;;;7.70;;
15130;SDS011;7666;50.920;4.628;2023-05-21T08:51:49;8.43;;;7.57;;
15130;SDS011;7666;50.920;4.628;2023-05-21T08:54:36;10.07;;;7.90;;
15130;SDS011;7666;50.920;4.628;2023-05-21T08:57:24;9.97;;;8.97;;
15130;SDS011;7666;50.920;4.628;2023-05-21T09:00:11;9.97;;;8.97;;
15130;SDS011;7666;50.920;4.628;2023-05-21T09:02:58;8.73;;;7.93;;
15130;SDS011;7666;50.920;4.628;2023-05-21T09:05:46;9.10;;;8.20;;
15130;SDS011;7666;50.920;4.628;2023-05-21T09:08:34;9.13;;;8.23;;
15130;SDS011;7666;50.920;4.628;2023-05-21T09:11:23;9.30;;;8.23;;
15130;SDS011;7666;50.920;4.628;2023-05-21T09:14:09;10.03;;;8.43;;
15130;SDS011;7666;50.920;4.628;2023-05-21T09:16:56;11.83;;;9.10;;
15130;SDS011;7666;50.920;4.628;2023-05-21T09:22:56;9.10;;;8.20;;
15130;SDS011;7666;50.920;4.628;2023-05-21T09:25:48;13.27;;;9.27;;
15130;SDS011;7666;50.920;4.628;2023-05-21T09:28:36;9.87;;;8.87;;
15130;SDS011;7666;50.920;4.628;2023-05-21T09:31:22;10.77;;;9.13;;
15130;SDS011;7666;50.920;4.628;2023-05-21T09:34:08;10.67;;;8.87;;
15130;SDS011;7666;50.920;4.628;2023-05-21T09:36:57;9.63;;;8.33;;
15130;SDS011;7666;50.920;4.628;2023-05-21T09:39:46;10.00;;;9.00;;
15130;SDS011;7666;50.920;4.628;2023-05-21T09:42:32;13.23;;;9.27;;
15130;SDS011;7666;50.920;4.628;2023-05-21T09:45:22;10.43;;;9.43;;
15130;SDS011;7666;50.920;4.628;2023-05-21T09:48:09;10.87;;;9.87;;
15130;SDS011;7666;50.920;4.628;2023-05-21T09:51:05;11.43;;;8.63;;
15130;SDS011;7666;50.920;4.628;2023-05-21T09:53:58;9.20;;;8.20;;
15130;SDS011;7666;50.920;4.628;2023-05-21T09:56:45;9.83;;;8.83;;
15130;SDS011;7666;50.920;4.628;2023-05-21T09:59:34;10.33;;;9.20;;
15130;SDS011;7666;50.920;4.628;2023-05-21T10:02:24;11.23;;;9.37;;
15130;SDS011;7666;50.920;4.628;2023-05-21T10:05:11;10.07;;;9.13;;
15130;SDS011;7666;50.920;4.628;2023-05-21T10:07:59;10.33;;;9.23;;
15130;SDS011;7666;50.920;4.628;2023-05-21T10:10:46;10.73;;;9.63;;
15130;SDS011;7666;50.920;4.628;2023-05-21T10:13:35;10.37;;;9.37;;
15130;SDS011;7666;50.920;4.628;2023-05-21T10:16:24;11.00;;;9.70;;
15130;SDS011;7666;50.920;4.628;2023-05-21T10:19:11;10.83;;;9.77;;
15130;SDS011;7666;50.920;4.628;2023-05-21T10:21:59;11.67;;;9.97;;
15130;SDS011;7666;50.920;4.628;2023-05-21T10:24:46;9.97;;;9.07;;
15130;SDS011;7666;50.920;4.628;2023-05-21T10:27:36;10.50;;;9.40;;
15130;SDS011;7666;50.920;4.628;2023-05-21T10:30:22;11.27;;;10.07;;
15130;SDS011;7666;50.920;4.628;2023-05-21T10:33:08;12.60;;;9.87;;
15130;SDS011;7666;50.920;4.628;2023-05-21T10:35:58;11.63;;;10.43;;
15130;SDS011;7666;50.920;4.628;2023-05-21T10:38:44;11.57;;;10.43;;
15130;SDS011;7666;50.920;4.628;2023-05-21T10:41:32;12.40;;;11.10;;
15130;SDS011;7666;50.920;4.628;2023-05-21T10:56:23;12.70;;;11.40;;
15130;SDS011;7666;50.920;4.628;2023-05-21T10:59:35;12.17;;;10.57;;
15130;SDS011;7666;50.920;4.628;2023-05-21T11:02:26;12.47;;;11.17;;
15130;SDS011;7666;50.920;4.628;2023-05-21T11:05:13;12.90;;;11.70;;
15130;SDS011;7666;50.920;4.628;2023-05-21T11:07:59;13.37;;;11.33;;
15130;SDS011;7666;50.920;4.628;2023-05-21T11:10:50;12.43;;;11.23;;
15130;SDS011;7666;50.920;4.628;2023-05-21T11:13:44;13.83;;;11.67;;
15130;SDS011;7666;50.920;4.628;2023-05-21T11:16:34;13.27;;;12.00;;
15130;SDS011;7666;50.920;4.628;2023-05-21T11:19:20;12.67;;;11.37;;
15130;SDS011;7666;50.920;4.628;2023-05-21T11:22:07;12.77;;;11.37;;
15130;SDS011;7666;50.920;4.628;2023-05-21T11:24:55;12.00;;;10.67;;
15130;SDS011;7666;50.920;4.628;2023-05-21T11:27:45;11.47;;;10.30;;
15130;SDS011;7666;50.920;4.628;2023-05-21T11:30:32;12.33;;;11.10;;
15130;SDS011;7666;50.920;4.628;2023-05-21T11:33:18;13.07;;;11.73;;
15130;SDS011;7666;50.920;4.628;2023-05-21T11:36:05;12.80;;;11.60;;
15130;SDS011;7666;50.920;4.628;2023-05-21T11:39:15;13.43;;;12.13;;
15130;SDS011;7666;50.920;4.628;2023-05-21T11:42:06;13.87;;;11.97;;
15130;SDS011;7666;50.920;4.628;2023-05-21T11:44:52;13.30;;;12.00;;
15130;SDS011;7666;50.920;4.628;2023-05-21T11:47:40;14.13;;;12.27;;
15130;SDS011;7666;50.920;4.628;2023-05-21T11:50:28;12.97;;;11.67;;
15130;SDS011;7666;50.920;4.628;2023-05-21T11:53:16;13.77;;;12.47;;
15130;SDS011;7666;50.920;4.628;2023-05-21T11:56:02;13.30;;;11.93;;
15130;SDS011;7666;50.920;4.628;2023-05-21T11:58:49;13.53;;;11.83;;
15130;SDS011;7666;50.920;4.628;2023-05-21T12:01:43;13.37;;;12.00;;
15130;SDS011;7666;50.920;4.628;2023-05-21T12:04:29;13.53;;;12.17;;
15130;SDS011;7666;50.920;4.628;2023-05-21T12:07:22;12.70;;;11.40;;
15130;SDS011;7666;50.920;4.628;2023-05-21T12:10:08;13.47;;;12.17;;
15130;SDS011;7666;50.920;4.628;2023-05-21T12:12:54;12.90;;;11.63;;
15130;SDS011;7666;50.920;4.628;2023-05-21T12:15:40;12.63;;;11.33;;
15130;SDS011;7666;50.920;4.628;2023-05-21T12:18:26;13.17;;;11.77;;
15130;SDS011;7666;50.920;4.628;2023-05-21T12:21:12;12.70;;;11.03;;
15130;SDS011;7666;50.920;4.628;2023-05-21T12:23:58;13.07;;;11.77;;
15130;SDS011;7666;50.920;4.628;2023-05-21T12:26:44;16.40;;;11.87;;
15130;SDS011;7666;50.920;4.628;2023-05-21T12:29:32;14.07;;;11.70;;
15130;SDS011;7666;50.920;4.628;2023-05-21T12:32:25;13.17;;;11.83;;
15130;SDS011;7666;50.920;4.628;2023-05-21T12:35:19;12.83;;;11.53;;
15130;SDS011;7666;50.920;4.628;2023-05-21T12:38:06;12.10;;;10.97;;
15130;SDS011;7666;50.920;4.628;2023-05-21T12:40:54;12.53;;;11.23;;
15130;SDS011;7666;50.920;4.628;2023-05-21T12:43:40;13.37;;;11.40;;
15130;SDS011;7666;50.920;4.628;2023-05-21T12:46:27;11.80;;;10.67;;
15130;SDS011;7666;50.920;4.628;2023-05-21T12:49:30;13.17;;;11.67;;
15130;SDS011;7666;50.920;4.628;2023-05-21T12:52:19;12.70;;;11.50;;
15130;SDS011;7666;50.920;4.628;2023-05-21T12:55:06;14.20;;;12.07;;
15130;SDS011;7666;50.920;4.628;2023-05-21T12:58:01;13.20;;;11.37;;
15130;SDS011;7666;50.920;4.628;2023-05-21T13:00:49;15.03;;;12.30;;
15130;SDS011;7666;50.920;4.628;2023-05-21T13:03:42;12.97;;;11.73;;
15130;SDS011;7666;50.920;4.628;2023-05-21T13:06:29;14.13;;;12.13;;
15130;SDS011;7666;50.920;4.628;2023-05-21T13:09:15;13.40;;;12.00;;
15130;SDS011;7666;50.920;4.628;2023-05-21T13:12:01;12.33;;;11.10;;
15130;SDS011;7666;50.920;4.628;2023-05-21T13:14:52;13.20;;;11.87;;
15130;SDS011;7666;50.920;4.628;2023-05-21T13:17:39;12.80;;;11.37;;
15130;SDS011;7666;50.920;4.628;2023-05-21T13:20:25;12.60;;;11.30;;
15130;SDS011;7666;50.920;4.628;2023-05-21T13:23:13;11.73;;;10.37;;
15130;SDS011;7666;50.920;4.628;2023-05-21T13:26:00;13.73;;;11.47;;
15130;SDS011;7666;50.920;4.628;2023-05-21T13:28:46;12.53;;;11.23;;
15130;SDS011;7666;50.920;4.628;2023-05-21T13:31:32;11.20;;;10.20;;
15130;SDS011;7666;50.920;4.628;2023-05-21T13:34:18;12.37;;;11.13;;
15130;SDS011;7666;50.920;4.628;2023-05-21T13:37:04;12.50;;;10.70;;
15130;SDS011;7666;50.920;4.628;2023-05-21T13:39:50;11.77;;;10.57;;
15130;SDS011;7666;50.920;4.628;2023-05-21T13:42:36;12.73;;;11.50;;
15130;SDS011;7666;50.920;4.628;2023-05-21T13:45:23;11.63;;;10.63;;
15130;SDS011;7666;50.920;4.628;2023-05-21T13:48:13;13.13;;;10.73;;
15130;SDS011;7666;50.920;4.628;2023-05-21T13:50:59;12.57;;;10.27;;
15130;SDS011;7666;50.920;4.628;2023-05-21T13:53:45;12.30;;;11.10;;
15130;SDS011;7666;50.920;4.628;2023-05-21T13:56:31;12.00;;;10.80;;
15130;SDS011;7666;50.920;4.628;2023-05-21T13:59:18;12.83;;;10.47;;
15130;SDS011;7666;50.920;4.628;2023-05-21T14:02:04;12.43;;;11.20;;
15130;SDS011;7666;50.920;4.628;2023-05-21T14:04:51;11.37;;;10.27;;
15130;SDS011;7666;50.920;4.628;2023-05-21T14:07:37;12.30;;;9.90;;
15130;SDS011;7666;50.920;4.628;2023-05-21T14:10:24;12.33;;;11.03;;
15130;SDS011;7666;50.920;4.628;2023-05-21T14:13:10;12.33;;;10.80;;
15130;SDS011;7666;50.920;4.628;2023-05-21T14:15:56;12.30;;;9.80;;
15130;SDS011;7666;50.920;4.628;2023-05-21T14:18:42;11.57;;;10.40;;
15130;SDS011;7666;50.920;4.628;2023-05-21T14:21:28;11.60;;;10.50;;
15130;SDS011;7666;50.920;4.628;2023-05-21T14:24:15;11.87;;;10.67;;
15130;SDS011;7666;50.920;4.628;2023-05-21T14:27:01;11.50;;;10.50;;
15130;SDS011;7666;50.920;4.628;2023-05-21T14:29:47;11.57;;;10.40;;
15130;SDS011;7666;50.920;4.628;2023-05-21T14:32:33;11.30;;;10.10;;
15130;SDS011;7666;50.920;4.628;2023-05-21T14:35:19;12.90;;;10.80;;
15130;SDS011;7666;50.920;4.628;2023-05-21T14:38:05;12.17;;;10.97;;
15130;SDS011;7666;50.920;4.628;2023-05-21T14:40:51;12.40;;;11.20;;
15130;SDS011;7666;50.920;4.628;2023-05-21T14:43:38;11.23;;;10.13;;
15130;SDS011;7666;50.920;4.628;2023-05-21T14:46:24;12.00;;;10.80;;
15130;SDS011;7666;50.920;4.628;2023-05-21T14:49:10;12.50;;;10.63;;
15130;SDS011;7666;50.920;4.628;2023-05-21T14:51:56;12.17;;;10.80;;
15130;SDS011;7666;50.920;4.628;2023-05-21T14:54:42;12.17;;;10.97;;
15130;SDS011;7666;50.920;4.628;2023-05-21T14:57:28;11.53;;;10.33;;
15130;SDS011;7666;50.920;4.628;2023-05-21T15:00:14;12.47;;;10.50;;
15130;SDS011;7666;50.920;4.628;2023-05-21T15:03:00;11.90;;;10.80;;
15130;SDS011;7666;50.920;4.628;2023-05-21T15:05:47;11.93;;;10.70;;
15130;SDS011;7666;50.920;4.628;2023-05-21T15:08:33;11.47;;;10.37;;
15130;SDS011;7666;50.920;4.628;2023-05-21T15:11:19;15.50;;;11.53;;
15130;SDS011;7666;50.920;4.628;2023-05-21T15:14:05;11.57;;;10.10;;
15130;SDS011;7666;50.920;4.628;2023-05-21T15:16:51;12.27;;;10.90;;
15130;SDS011;7666;50.920;4.628;2023-05-21T15:19:37;12.83;;;10.57;;
15130;SDS011;7666;50.920;4.628;2023-05-21T15:22:24;11.47;;;10.27;;
15130;SDS011;7666;50.920;4.628;2023-05-21T15:25:10;12.23;;;11.03;;
15130;SDS011;7666;50.920;4.628;2023-05-21T15:27:56;11.53;;;10.43;;
15130;SDS011;7666;50.920;4.628;2023-05-21T15:30:42;15.90;;;11.23;;
15130;SDS011;7666;50.920;4.628;2023-05-21T15:33:28;12.87;;;10.10;;
15130;SDS011;7666;50.920;4.628;2023-05-21T15:36:14;11.47;;;10.37;;
15130;SDS011;7666;50.920;4.628;2023-05-21T15:39:00;11.47;;;10.40;;
15130;SDS011;7666;50.920;4.628;2023-05-21T15:41:47;12.03;;;10.63;;
15130;SDS011;7666;50.920;4.628;2023-05-21T15:44:33;11.47;;;10.37;;
15130;SDS011;7666;50.920;4.628;2023-05-21T15:47:19;11.87;;;10.60;;
15130;SDS011;7666;50.920;4.628;2023-05-21T15:50:09;12.37;;;10.73;;
15130;SDS011;7666;50.920;4.628;2023-05-21T15:52:55;14.77;;;10.80;;
15130;SDS011;7666;50.920;4.628;2023-05-21T15:55:41;12.23;;;11.07;;
15130;SDS011;7666;50.920;4.628;2023-05-21T15:58:27;11.97;;;10.03;;
15130;SDS011;7666;50.920;4.628;2023-05-21T16:01:13;12.03;;;10.83;;
15130;SDS011;7666;50.920;4.628;2023-05-21T16:04:00;13.53;;;10.40;;
15130;SDS011;7666;50.920;4.628;2023-05-21T16:06:49;14.13;;;10.77;;
15130;SDS011;7666;50.920;4.628;2023-05-21T16:09:35;12.00;;;10.80;;
15130;SDS011;7666;50.920;4.628;2023-05-21T16:12:22;11.97;;;10.60;;
15130;SDS011;7666;50.920;4.628;2023-05-21T16:15:08;11.57;;;10.47;;
15130;SDS011;7666;50.920;4.628;2023-05-21T16:17:55;10.97;;;9.83;;
15130;SDS011;7666;50.920;4.628;2023-05-21T16:20:41;10.70;;;9.60;;
15130;SDS011;7666;50.920;4.628;2023-05-21T16:23:27;11.37;;;10.23;;
15130;SDS011;7666;50.920;4.628;2023-05-21T16:26:13;11.63;;;9.57;;
15130;SDS011;7666;50.920;4.628;2023-05-21T16:28:59;10.47;;;9.47;;
15130;SDS011;7666;50.920;4.628;2023-05-21T16:31:46;11.50;;;10.27;;
15130;SDS011;7666;50.920;4.628;2023-05-21T16:34:32;11.20;;;10.10;;
15130;SDS011;7666;50.920;4.628;2023-05-21T16:37:18;11.43;;;10.27;;
15130;SDS011;7666;50.920;4.628;2023-05-21T16:40:05;11.00;;;10.00;;
15130;SDS011;7666;50.920;4.628;2023-05-21T16:42:52;12.13;;;9.67;;
15130;SDS011;7666;50.920;4.628;2023-05-21T16:45:38;11.43;;;10.23;;
15130;SDS011;7666;50.920;4.628;2023-05-21T16:48:25;14.07;;;10.50;;
15130;SDS011;7666;50.920;4.628;2023-05-21T16:51:11;10.77;;;9.57;;
15130;SDS011;7666;50.920;4.628;2023-05-21T16:53:57;12.60;;;9.97;;
15130;SDS011;7666;50.920;4.628;2023-05-21T16:56:43;9.60;;;8.70;;
15130;SDS011;7666;50.920;4.628;2023-05-21T16:59:29;10.93;;;9.80;;
15130;SDS011;7666;50.920;4.628;2023-05-21T17:02:15;10.60;;;9.60;;
15130;SDS011;7666;50.920;4.628;2023-05-21T17:05:01;10.23;;;9.23;;
15130;SDS011;7666;50.920;4.628;2023-05-21T17:07:48;11.97;;;10.77;;